Aalsmeer, Netherlands
Current Conditions -  °F | °C
As of 8:55 PM on Tuesday 21 Oct 2014 (Local Time) from EHAM Reporting Station
Few Clouds Few Clouds  
Wind Chill: 50°   Ceiling: Unl
Heat Index: 50°   Visibility: 6mi
Dew Point: 41°   Wind: 22mph
Humidity: 71%   Direction: 310°NW
Pressure: 29.62"   Gusts: 33mph
Location:  52.26°N, 4.76°E
Report Text: EHAM 211855Z 31019G29KT 280V340 9999 FEW049 10/05 Q1003 TEMPO30025G35KT 6000 TSRA SCT030CB
Loading
Personal Weather Stations






























Interactive Weather Map
Tropical Storm Tracking
New forecast layout! Learn more

10-Day Weather Forecast

Advertisements
Track Severe Weather on mobile